Time;durP1;ratioP1;P1;durP2;ratioP2;P2;SDS_P1;SDS_P2;PMS_P1;PMS_P2;Temp;Humidity;BMP_temperature;BMP_pressure;BME280_temperature;BME280_humidity;BME280_pressure;Samples;Min_cycle;Max_cycle;Signal;HPM_P1;HPM_P2
2022/12/19 00:01:48;;;;;;;45.72;18.58;;;;;;;;;;5045720;28;20053;-79
2022/12/19 00:04:18;;;;;;;39.20;17.08;;;;;;;;;;5046468;28;20038;-79
2022/12/19 00:06:46;;;;;;;42.70;18.65;;;;;;;;;;5039328;28;20061;-79
2022/12/19 00:09:13;;;;;;;50.10;19.90;;;;;;;;;;5045360;28;20042;-79
2022/12/19 00:11:41;;;;;;;50.33;20.10;;;;;;;;;;5045548;28;20114;-79
2022/12/19 00:14:14;;;;;;;49.38;19.25;;;;;;;;;;5037430;28;21290;-79
2022/12/19 00:16:41;;;;;;;49.70;20.13;;;;;;;;;;5043226;28;20061;-79
2022/12/19 00:19:10;;;;;;;53.53;21.63;;;;;;;;;;5046068;28;20060;-79
2022/12/19 00:21:40;;;;;;;40.58;19.67;;;;;;;;;;5051151;28;20061;-79
2022/12/19 00:24:07;;;;;;;54.13;21.08;;;;;;;;;;5045831;28;20042;-79
2022/12/19 00:26:47;;;;;;;56.72;21.38;;;;;;;;;;5059165;28;20065;-80
2022/12/19 00:29:15;;;;;;;47.10;18.40;;;;;;;;;;5044311;28;20062;-80
2022/12/19 00:31:42;;;;;;;56.53;22.45;;;;;;;;;;5050171;28;21179;-80
2022/12/19 00:34:09;;;;;;;50.53;21.13;;;;;;;;;;5038304;28;20046;-80
2022/12/19 00:36:40;;;;;;;42.95;19.48;;;;;;;;;;5045821;28;20034;-79
2022/12/19 00:39:09;;;;;;;54.00;21.75;;;;;;;;;;5043496;28;20588;-79
2022/12/19 00:41:37;;;;;;;49.05;21.33;;;;;;;;;;5044126;28;20057;-79
2022/12/19 00:44:15;;;;;;;59.53;20.08;;;;;;;;;;5046178;28;20049;-79
2022/12/19 00:46:43;;;;;;;56.72;21.90;;;;;;;;;;5040017;28;20057;-79
2022/12/19 00:49:19;;;;;;;43.33;20.13;;;;;;;;;;5039178;28;20037;-80
2022/12/19 00:51:47;;;;;;;48.75;19.58;;;;;;;;;;5044200;28;20042;-80
2022/12/19 00:54:14;;;;;;;43.40;18.63;;;;;;;;;;5045749;28;20053;-79
2022/12/19 00:56:42;;;;;;;50.90;20.10;;;;;;;;;;5036940;28;20022;-79
2022/12/19 00:59:09;;;;;;;44.13;18.25;;;;;;;;;;5048180;28;20042;-79
2022/12/19 01:01:40;;;;;;;42.90;18.75;;;;;;;;;;5043406;28;20058;-79
2022/12/19 01:04:12;;;;;;;39.13;18.55;;;;;;;;;;5047676;28;20038;-80
2022/12/19 01:06:57;;;;;;;45.13;18.00;;;;;;;;;;5043682;28;20044;-79
2022/12/19 01:09:29;;;;;;;44.08;18.67;;;;;;;;;;5045676;28;20418;-79
2022/12/19 01:14:43;;;;;;;44.05;18.63;;;;;;;;;;5044310;28;20050;-79
2022/12/19 01:17:11;;;;;;;46.47;19.52;;;;;;;;;;5046950;28;20053;-79
2022/12/19 01:19:38;;;;;;;44.22;18.42;;;;;;;;;;5046287;28;20038;-79
2022/12/19 01:22:11;;;;;;;42.78;18.65;;;;;;;;;;5039250;28;20857;-79
2022/12/19 01:24:39;;;;;;;41.78;17.48;;;;;;;;;;5046844;28;20034;-79
2022/12/19 01:27:06;;;;;;;47.83;18.73;;;;;;;;;;5045168;28;20073;-79
2022/12/19 01:29:33;;;;;;;46.80;19.35;;;;;;;;;;5045291;28;20073;-79
2022/12/19 01:32:22;;;;;;;51.30;19.10;;;;;;;;;;5042964;28;20042;-79
2022/12/19 01:34:49;;;;;;;51.90;19.92;;;;;;;;;;5040718;28;20064;-79
2022/12/19 01:37:17;;;;;;;48.35;19.08;;;;;;;;;;5041067;28;20064;-79
2022/12/19 01:39:44;;;;;;;47.47;19.17;;;;;;;;;;5044799;28;20046;-79
2022/12/19 01:42:19;;;;;;;55.28;20.15;;;;;;;;;;5044741;28;20046;-79
2022/12/19 01:45:08;;;;;;;53.92;19.55;;;;;;;;;;5039044;28;20048;-80
2022/12/19 01:47:46;;;;;;;49.45;19.33;;;;;;;;;;5038808;28;20084;-79
2022/12/19 01:50:19;;;;;;;53.50;19.80;;;;;;;;;;5030818;28;20061;-79
2022/12/19 01:52:46;;;;;;;54.33;20.90;;;;;;;;;;5028976;28;20045;-79
2022/12/19 01:55:15;;;;;;;57.80;21.75;;;;;;;;;;5035519;28;20925;-79
2022/12/19 01:57:43;;;;;;;55.13;20.88;;;;;;;;;;5031524;28;20057;-78
2022/12/19 02:00:11;;;;;;;72.35;21.75;;;;;;;;;;5032705;28;20050;-79
2022/12/19 02:03:00;;;;;;;57.30;20.50;;;;;;;;;;5032286;28;20162;-79
2022/12/19 02:05:29;;;;;;;49.97;19.30;;;;;;;;;;5031871;28;20043;-79
2022/12/19 02:07:57;;;;;;;60.80;21.13;;;;;;;;;;5032976;28;20057;-78
2022/12/19 02:10:25;;;;;;;53.67;19.92;;;;;;;;;;5035363;28;20053;-78
2022/12/19 02:12:52;;;;;;;59.53;21.88;;;;;;;;;;5038106;28;20054;-79
2022/12/19 02:15:20;;;;;;;49.83;19.10;;;;;;;;;;5036609;28;20042;-79
2022/12/19 02:17:47;;;;;;;52.00;19.10;;;;;;;;;;5032223;28;20459;-79
2022/12/19 02:20:21;;;;;;;60.60;19.45;;;;;;;;;;5036833;28;20045;-79
2022/12/19 02:22:54;;;;;;;52.40;19.95;;;;;;;;;;5041091;28;20045;-78
2022/12/19 02:25:25;;;;;;;62.50;19.23;;;;;;;;;;5034186;28;20126;-79
2022/12/19 02:27:56;;;;;;;53.92;19.90;;;;;;;;;;5035703;28;20046;-78
2022/12/19 02:30:37;;;;;;;56.72;19.05;;;;;;;;;;5036002;28;20106;-78
2022/12/19 02:33:09;;;;;;;54.80;18.73;;;;;;;;;;5032140;28;20077;-79
2022/12/19 02:35:51;;;;;;;63.13;20.63;;;;;;;;;;5034604;28;20057;-79
2022/12/19 02:38:28;;;;;;;63.25;19.30;;;;;;;;;;5033196;28;20058;-78
2022/12/19 02:41:03;;;;;;;56.53;19.98;;;;;;;;;;5037638;28;20046;-79
2022/12/19 02:43:33;;;;;;;49.35;17.75;;;;;;;;;;5043505;28;20060;-78
2022/12/19 02:46:03;;;;;;;56.88;18.10;;;;;;;;;;5038527;28;20050;-79
2022/12/19 02:48:32;;;;;;;55.90;18.52;;;;;;;;;;5037498;28;20068;-79
2022/12/19 02:51:00;;;;;;;68.97;20.50;;;;;;;;;;5038502;28;20065;-79
2022/12/19 02:53:27;;;;;;;55.95;18.85;;;;;;;;;;5034563;28;20046;-79
2022/12/19 02:56:04;;;;;;;56.47;19.10;;;;;;;;;;5038177;28;20053;-79
2022/12/19 02:58:36;;;;;;;52.08;18.85;;;;;;;;;;5037201;28;20803;-79
2022/12/19 03:01:12;;;;;;;57.22;18.25;;;;;;;;;;5036011;28;20046;-78
2022/12/19 03:03:46;;;;;;;48.17;17.15;;;;;;;;;;5036040;28;20085;-79
2022/12/19 03:06:13;;;;;;;53.45;17.67;;;;;;;;;;5044103;28;20092;-79
2022/12/19 03:08:40;;;;;;;60.90;18.50;;;;;;;;;;5040963;28;20603;-79
2022/12/19 03:11:12;;;;;;;53.65;18.38;;;;;;;;;;5044607;28;20046;-79
2022/12/19 03:13:47;;;;;;;57.45;18.92;;;;;;;;;;5040596;28;20061;-79
2022/12/19 03:16:15;;;;;;;54.35;18.60;;;;;;;;;;5040789;28;20038;-79
2022/12/19 03:18:43;;;;;;;51.63;18.20;;;;;;;;;;5038777;28;20061;-79
2022/12/19 03:21:26;;;;;;;53.00;17.35;;;;;;;;;;5039503;28;20097;-79
2022/12/19 03:23:54;;;;;;;46.10;18.83;;;;;;;;;;5043956;28;20144;-79
2022/12/19 03:26:23;;;;;;;46.80;17.90;;;;;;;;;;5043126;28;20060;-79
2022/12/19 03:28:50;;;;;;;62.47;19.42;;;;;;;;;;5037113;28;20388;-78
2022/12/19 03:31:19;;;;;;;53.00;17.13;;;;;;;;;;5036945;28;20046;-79
2022/12/19 03:33:48;;;;;;;53.28;18.27;;;;;;;;;;5041689;28;20041;-78
2022/12/19 03:36:19;;;;;;;44.58;17.02;;;;;;;;;;5041769;28;20102;-79
2022/12/19 03:38:48;;;;;;;47.10;15.75;;;;;;;;;;5059016;28;20058;-79
2022/12/19 03:43:07;;;;;;;56.83;17.52;;;;;;;;;;5044324;28;20111;-79
2022/12/19 03:44:07;;;;;;;48.58;18.20;;;;;;;;;;5038216;28;20053;-78
2022/12/19 03:46:38;;;;;;;53.08;17.17;;;;;;;;;;5040547;28;20042;-79
2022/12/19 03:49:06;;;;;;;49.80;19.35;;;;;;;;;;5040299;28;20035;-79
2022/12/19 03:51:40;;;;;;;50.67;16.83;;;;;;;;;;5042428;28;20057;-79
2022/12/19 03:54:18;;;;;;;49.50;16.38;;;;;;;;;;5041467;28;20061;-79
2022/12/19 03:57:04;;;;;;;47.40;16.05;;;;;;;;;;5058852;28;20041;-79
2022/12/19 03:59:44;;;;;;;41.22;15.48;;;;;;;;;;5041913;28;20053;-79
2022/12/19 04:02:14;;;;;;;42.92;15.10;;;;;;;;;;5041142;28;20203;-79
2022/12/19 04:04:46;;;;;;;46.95;14.60;;;;;;;;;;5042895;28;20056;-79
2022/12/19 04:07:14;;;;;;;34.85;13.85;;;;;;;;;;5044140;28;20056;-79
2022/12/19 04:09:42;;;;;;;57.75;18.27;;;;;;;;;;5041317;28;20038;-79
2022/12/19 04:12:20;;;;;;;39.70;14.93;;;;;;;;;;5038987;28;20077;-79
2022/12/19 04:14:48;;;;;;;45.38;14.70;;;;;;;;;;5037877;28;20156;-79
2022/12/19 04:17:25;;;;;;;40.75;14.40;;;;;;;;;;5043720;28;20050;-79
2022/12/19 04:20:01;;;;;;;46.30;14.25;;;;;;;;;;5043408;28;20038;-79
2022/12/19 04:22:29;;;;;;;33.63;14.23;;;;;;;;;;5043559;28;20042;-79
2022/12/19 04:24:58;;;;;;;43.75;14.48;;;;;;;;;;5041814;28;20104;-79
2022/12/19 04:27:29;;;;;;;41.15;14.48;;;;;;;;;;5044187;28;20110;-79
2022/12/19 04:29:57;;;;;;;40.10;13.85;;;;;;;;;;5041134;28;20038;-79
2022/12/19 04:32:25;;;;;;;34.95;12.15;;;;;;;;;;5037236;28;20050;-79
2022/12/19 04:34:52;;;;;;;43.63;12.80;;;;;;;;;;5054562;28;20160;-79
2022/12/19 04:37:20;;;;;;;46.17;13.50;;;;;;;;;;5043274;28;20061;-78
2022/12/19 04:39:47;;;;;;;45.80;12.73;;;;;;;;;;5040254;28;20077;-79
2022/12/19 04:42:15;;;;;;;34.38;13.68;;;;;;;;;;5029916;28;20039;-79
2022/12/19 04:44:43;;;;;;;40.42;13.75;;;;;;;;;;5033419;28;20066;-79
2022/12/19 04:47:10;;;;;;;41.67;13.75;;;;;;;;;;5031409;28;20192;-79
2022/12/19 04:49:38;;;;;;;40.28;16.00;;;;;;;;;;5033418;28;20121;-79
2022/12/19 04:52:08;;;;;;;43.53;14.40;;;;;;;;;;5033654;28;20046;-78
2022/12/19 04:54:35;;;;;;;46.30;14.05;;;;;;;;;;5042579;28;20053;-79
2022/12/19 04:57:03;;;;;;;36.97;13.15;;;;;;;;;;5037170;28;20070;-78
2022/12/19 04:59:30;;;;;;;39.55;12.80;;;;;;;;;;5024888;28;20058;-79
2022/12/19 05:01:58;;;;;;;33.13;12.35;;;;;;;;;;5029440;28;20855;-79
2022/12/19 05:04:26;;;;;;;39.05;13.73;;;;;;;;;;5045553;28;20052;-78
2022/12/19 05:06:53;;;;;;;44.17;12.95;;;;;;;;;;5037010;28;20052;-79
2022/12/19 05:09:20;;;;;;;38.97;12.30;;;;;;;;;;5031270;28;20077;-78
2022/12/19 05:11:48;;;;;;;33.47;13.10;;;;;;;;;;5032464;28;20141;-79
2022/12/19 05:14:15;;;;;;;35.60;12.07;;;;;;;;;;5037390;28;20054;-80
2022/12/19 05:16:42;;;;;;;28.77;11.32;;;;;;;;;;5037716;28;20052;-79
2022/12/19 05:19:10;;;;;;;34.90;12.18;;;;;;;;;;5037507;28;20041;-79
2022/12/19 05:21:40;;;;;;;30.77;11.85;;;;;;;;;;5034408;28;20053;-79
2022/12/19 05:24:07;;;;;;;41.90;11.80;;;;;;;;;;5034453;28;20137;-79
2022/12/19 05:26:35;;;;;;;31.33;10.57;;;;;;;;;;5034370;28;20088;-79
2022/12/19 05:29:02;;;;;;;41.80;11.77;;;;;;;;;;5036894;28;20141;-79
2022/12/19 05:31:30;;;;;;;29.40;11.70;;;;;;;;;;5035796;28;20053;-79
2022/12/19 05:33:57;;;;;;;33.28;10.27;;;;;;;;;;5031469;28;20104;-78
2022/12/19 05:36:24;;;;;;;40.45;11.88;;;;;;;;;;5033869;28;20132;-79
2022/12/19 05:38:58;;;;;;;37.70;9.68;;;;;;;;;;5030790;28;20104;-79
2022/12/19 05:41:28;;;;;;;32.15;10.27;;;;;;;;;;5045684;28;20046;-78
2022/12/19 05:43:56;;;;;;;42.25;10.73;;;;;;;;;;5032325;28;20057;-78
2022/12/19 05:46:23;;;;;;;26.83;9.82;;;;;;;;;;5032255;28;20049;-78
2022/12/19 05:48:51;;;;;;;30.23;10.45;;;;;;;;;;5031992;28;20097;-79
2022/12/19 05:51:21;;;;;;;36.67;10.20;;;;;;;;;;5034425;28;22007;-79
2022/12/19 05:53:49;;;;;;;28.55;9.68;;;;;;;;;;5036569;28;20058;-78
2022/12/19 05:56:18;;;;;;;37.20;10.20;;;;;;;;;;5033371;28;20066;-78
2022/12/19 05:58:46;;;;;;;22.55;9.20;;;;;;;;;;5028485;28;20053;-78
2022/12/19 06:01:14;;;;;;;20.38;8.85;;;;;;;;;;5028502;28;20054;-78
2022/12/19 06:03:42;;;;;;;29.92;9.35;;;;;;;;;;5033229;28;20058;-79
2022/12/19 06:06:12;;;;;;;26.63;8.57;;;;;;;;;;5038522;28;20092;-79
2022/12/19 06:08:40;;;;;;;34.17;8.95;;;;;;;;;;5052172;28;20117;-79
2022/12/19 06:11:08;;;;;;;24.05;9.45;;;;;;;;;;5037620;28;20050;-79
2022/12/19 06:13:35;;;;;;;23.15;8.57;;;;;;;;;;5031049;28;20600;-78
2022/12/19 06:16:16;;;;;;;31.10;9.10;;;;;;;;;;5034093;28;20058;-78
2022/12/19 06:18:44;;;;;;;23.15;9.38;;;;;;;;;;5029506;28;20054;-79
2022/12/19 06:21:16;;;;;;;25.05;8.98;;;;;;;;;;5035152;28;20081;-80
2022/12/19 06:23:43;;;;;;;20.67;8.95;;;;;;;;;;5037006;28;20086;-80
2022/12/19 06:26:11;;;;;;;32.45;9.60;;;;;;;;;;5037806;28;20061;-79
2022/12/19 06:28:45;;;;;;;20.95;10.30;;;;;;;;;;5039894;28;20060;-79
2022/12/19 06:31:13;;;;;;;31.75;9.50;;;;;;;;;;5028820;28;20045;-78
2022/12/19 06:33:41;;;;;;;26.10;8.55;;;;;;;;;;5031433;28;20049;-79
2022/12/19 06:36:14;;;;;;;31.38;9.82;;;;;;;;;;5031755;28;20042;-79
2022/12/19 06:38:42;;;;;;;26.98;8.85;;;;;;;;;;5040732;28;20056;-79
2022/12/19 06:43:59;;;;;;;21.58;9.23;;;;;;;;;;5036541;28;20076;-79
2022/12/19 06:46:26;;;;;;;31.90;8.90;;;;;;;;;;5045144;28;20698;-79
2022/12/19 06:48:54;;;;;;;22.83;8.70;;;;;;;;;;5040684;28;20073;-79
2022/12/19 06:51:21;;;;;;;26.17;9.80;;;;;;;;;;5032972;28;20804;-79
2022/12/19 06:53:49;;;;;;;28.40;9.77;;;;;;;;;;5040647;28;20072;-79
2022/12/19 06:56:17;;;;;;;26.60;9.63;;;;;;;;;;5039627;28;20037;-79
2022/12/19 06:58:44;;;;;;;31.92;9.55;;;;;;;;;;5035970;28;20084;-79
2022/12/19 07:01:16;;;;;;;22.42;9.90;;;;;;;;;;5049893;28;20081;-79
2022/12/19 07:03:44;;;;;;;25.48;9.90;;;;;;;;;;5035825;28;20050;-79
2022/12/19 07:06:12;;;;;;;32.53;10.20;;;;;;;;;;5030529;28;20065;-79
2022/12/19 07:08:45;;;;;;;24.63;9.27;;;;;;;;;;5036520;28;20089;-79
2022/12/19 07:11:12;;;;;;;23.50;9.68;;;;;;;;;;5035662;28;20117;-79
2022/12/19 07:14:01;;;;;;;24.75;10.30;;;;;;;;;;5035696;28;20099;-79
2022/12/19 07:16:28;;;;;;;24.95;8.82;;;;;;;;;;5034665;28;20062;-79
2022/12/19 07:18:56;;;;;;;23.92;10.45;;;;;;;;;;5038513;28;20800;-79
2022/12/19 07:21:24;;;;;;;31.42;9.95;;;;;;;;;;5037756;28;20050;-80
2022/12/19 07:23:51;;;;;;;33.10;9.85;;;;;;;;;;5037575;28;20100;-79
2022/12/19 07:26:18;;;;;;;24.98;9.55;;;;;;;;;;5034431;28;20050;-79
2022/12/19 07:28:48;;;;;;;22.27;9.15;;;;;;;;;;5030808;28;20793;-79
2022/12/19 07:31:16;;;;;;;25.17;10.05;;;;;;;;;;5038245;28;20132;-79
2022/12/19 07:33:43;;;;;;;28.58;9.80;;;;;;;;;;5034623;28;20062;-79
2022/12/19 07:36:13;;;;;;;29.27;9.85;;;;;;;;;;5053921;28;20129;-79
2022/12/19 07:38:40;;;;;;;24.00;9.45;;;;;;;;;;5031272;28;20104;-79
2022/12/19 07:41:08;;;;;;;24.60;10.15;;;;;;;;;;5037292;28;20182;-79
2022/12/19 07:43:36;;;;;;;21.13;9.05;;;;;;;;;;5042916;28;20054;-79
2022/12/19 07:46:03;;;;;;;18.70;9.48;;;;;;;;;;5034577;28;20050;-79
2022/12/19 07:48:30;;;;;;;30.83;9.48;;;;;;;;;;5048059;28;21339;-79
2022/12/19 07:50:58;;;;;;;23.27;9.45;;;;;;;;;;5042379;28;20049;-79
2022/12/19 07:53:27;;;;;;;23.50;9.43;;;;;;;;;;5043947;28;20044;-79
2022/12/19 07:55:54;;;;;;;33.58;9.60;;;;;;;;;;5054753;28;20185;-79
2022/12/19 07:58:22;;;;;;;27.25;9.10;;;;;;;;;;5043037;28;20050;-79
2022/12/19 08:00:55;;;;;;;21.90;9.23;;;;;;;;;;5043102;28;20069;-79
2022/12/19 08:03:23;;;;;;;30.27;9.15;;;;;;;;;;5039620;28;20034;-78
2022/12/19 08:05:51;;;;;;;30.42;9.25;;;;;;;;;;5050662;28;20080;-79
2022/12/19 08:08:20;;;;;;;20.98;9.65;;;;;;;;;;5041812;28;20105;-79
2022/12/19 08:10:48;;;;;;;23.00;9.10;;;;;;;;;;5039509;28;20423;-79
2022/12/19 08:13:15;;;;;;;26.70;9.75;;;;;;;;;;5038926;28;20066;-79
2022/12/19 08:15:43;;;;;;;18.80;9.00;;;;;;;;;;5043507;28;20050;-79
2022/12/19 08:18:11;;;;;;;22.33;9.20;;;;;;;;;;5041278;28;20606;-79
2022/12/19 08:20:38;;;;;;;20.25;9.07;;;;;;;;;;5037735;28;20150;-79
2022/12/19 08:23:07;;;;;;;21.20;9.02;;;;;;;;;;5031963;28;20118;-79
2022/12/19 08:25:37;;;;;;;19.77;8.50;;;;;;;;;;5033986;28;20138;-79
2022/12/19 08:28:05;;;;;;;20.30;9.13;;;;;;;;;;5037298;28;20610;-79
2022/12/19 08:30:32;;;;;;;21.52;8.60;;;;;;;;;;5059503;28;20117;-79
2022/12/19 08:33:03;;;;;;;17.55;8.82;;;;;;;;;;5042464;28;20053;-79
2022/12/19 08:35:32;;;;;;;20.85;8.65;;;;;;;;;;5044118;28;20073;-79
2022/12/19 08:38:03;;;;;;;23.92;9.52;;;;;;;;;;5041566;28;20042;-80
2022/12/19 08:40:32;;;;;;;22.38;9.70;;;;;;;;;;5047707;28;20110;-80
2022/12/19 08:43:01;;;;;;;20.08;8.45;;;;;;;;;;5045235;28;20081;-80
2022/12/19 08:45:31;;;;;;;19.23;8.02;;;;;;;;;;5042367;28;20045;-80
2022/12/19 08:48:01;;;;;;;16.83;8.20;;;;;;;;;;5057958;28;20054;-79
2022/12/19 08:50:31;;;;;;;18.00;8.77;;;;;;;;;;5043588;28;20050;-80
2022/12/19 08:52:58;;;;;;;27.75;8.45;;;;;;;;;;5044775;28;20046;-80
2022/12/19 08:55:25;;;;;;;17.77;8.23;;;;;;;;;;5038291;28;20092;-80
2022/12/19 08:57:55;;;;;;;24.23;8.10;;;;;;;;;;5042048;28;20042;-80
2022/12/19 09:00:28;;;;;;;20.02;8.98;;;;;;;;;;5040080;28;20129;-80
2022/12/19 09:02:58;;;;;;;19.90;8.13;;;;;;;;;;5045151;28;20054;-79
2022/12/19 09:05:26;;;;;;;18.73;8.07;;;;;;;;;;5040306;28;20077;-80
2022/12/19 09:08:13;;;;;;;22.98;8.00;;;;;;;;;;5043261;28;20050;-80
2022/12/19 09:10:41;;;;;;;16.80;7.43;;;;;;;;;;5059960;28;20077;-80
2022/12/19 09:13:08;;;;;;;17.08;7.53;;;;;;;;;;5043905;28;20097;-80
2022/12/19 09:15:39;;;;;;;20.02;7.18;;;;;;;;;;5057602;28;20054;-80
2022/12/19 09:18:09;;;;;;;16.90;7.18;;;;;;;;;;5046808;28;20037;-80
2022/12/19 09:20:37;;;;;;;22.25;7.57;;;;;;;;;;5045351;28;20050;-80
2022/12/19 09:23:06;;;;;;;15.00;6.72;;;;;;;;;;5046150;28;20037;-81
2022/12/19 09:25:36;;;;;;;20.05;8.07;;;;;;;;;;5061308;28;20046;-81
2022/12/19 09:28:06;;;;;;;22.98;7.63;;;;;;;;;;5045574;28;20093;-80
2022/12/19 09:30:58;;;;;;;16.20;7.32;;;;;;;;;;5044787;28;20049;-80
2022/12/19 09:33:25;;;;;;;18.25;7.20;;;;;;;;;;5044576;28;20063;-80
2022/12/19 09:35:56;;;;;;;18.38;7.38;;;;;;;;;;5056508;28;20531;-80
2022/12/19 09:38:24;;;;;;;16.52;6.95;;;;;;;;;;5039532;28;20104;-80
2022/12/19 09:40:58;;;;;;;12.18;6.72;;;;;;;;;;5043133;28;20038;-80
2022/12/19 09:43:31;;;;;;;13.25;7.07;;;;;;;;;;5044346;28;20100;-80
2022/12/19 09:46:15;;;;;;;20.17;6.55;;;;;;;;;;5040722;28;20053;-80
2022/12/19 09:48:46;;;;;;;21.90;7.45;;;;;;;;;;5043011;28;20054;-80
2022/12/19 09:51:30;;;;;;;18.05;6.70;;;;;;;;;;5040434;28;20038;-80
2022/12/19 09:54:08;;;;;;;19.20;6.50;;;;;;;;;;5038915;28;20112;-81
2022/12/19 09:56:39;;;;;;;14.70;6.93;;;;;;;;;;5041890;28;20054;-80
2022/12/19 09:59:24;;;;;;;17.85;7.13;;;;;;;;;;5047312;28;20038;-81
2022/12/19 10:02:04;;;;;;;17.17;6.93;;;;;;;;;;5038430;28;20049;-80
2022/12/19 10:04:41;;;;;;;15.90;7.28;;;;;;;;;;5038150;28;20060;-80
2022/12/19 10:07:11;;;;;;;15.73;7.32;;;;;;;;;;5040647;28;20151;-80
2022/12/19 10:09:58;;;;;;;17.75;7.50;;;;;;;;;;5046185;28;20061;-80
2022/12/19 10:12:53;;;;;;;16.35;7.05;;;;;;;;;;5041840;28;20042;-80
2022/12/19 10:15:45;;;;;;;15.55;7.07;;;;;;;;;;5050125;28;20046;-80
2022/12/19 10:18:42;;;;;;;20.92;7.15;;;;;;;;;;5045750;28;20066;-80
2022/12/19 10:21:14;;;;;;;15.90;8.07;;;;;;;;;;5046542;28;20042;-80
2022/12/19 10:23:52;;;;;;;19.55;7.13;;;;;;;;;;5045533;28;20062;-80
2022/12/19 10:26:36;;;;;;;14.23;6.65;;;;;;;;;;5040723;28;20064;-80
2022/12/19 10:29:16;;;;;;;19.40;6.43;;;;;;;;;;5040598;28;20977;-80
2022/12/19 10:31:54;;;;;;;12.57;6.38;;;;;;;;;;5045168;28;20061;-80
2022/12/19 10:34:33;;;;;;;14.43;5.85;;;;;;;;;;5046343;28;20049;-80
2022/12/19 10:37:22;;;;;;;15.20;6.25;;;;;;;;;;5057157;28;20042;-80
2022/12/19 10:40:13;;;;;;;12.43;6.18;;;;;;;;;;5040194;28;20065;-81
2022/12/19 10:43:00;;;;;;;12.40;5.68;;;;;;;;;;5043814;28;20054;-80
2022/12/19 10:45:39;;;;;;;12.05;6.30;;;;;;;;;;5054131;28;20106;-80
2022/12/19 10:48:10;;;;;;;11.07;5.53;;;;;;;;;;5056087;28;20061;-80
2022/12/19 10:50:38;;;;;;;10.43;6.07;;;;;;;;;;5057265;28;20045;-80
2022/12/19 10:53:11;;;;;;;17.63;6.30;;;;;;;;;;5044276;28;20098;-80
2022/12/19 10:55:47;;;;;;;19.83;5.90;;;;;;;;;;5041554;28;20060;-80
2022/12/19 10:58:18;;;;;;;13.75;6.38;;;;;;;;;;5041398;28;20058;-79
2022/12/19 11:01:05;;;;;;;12.82;6.53;;;;;;;;;;5043768;28;20038;-80
2022/12/19 11:03:39;;;;;;;10.18;5.53;;;;;;;;;;5035132;28;20042;-80
2022/12/19 11:06:27;;;;;;;12.07;5.28;;;;;;;;;;5045944;28;20054;-80
2022/12/19 11:09:12;;;;;;;12.98;5.85;;;;;;;;;;5046451;28;20100;-80
2022/12/19 11:11:39;;;;;;;9.90;5.40;;;;;;;;;;5038739;28;20850;-80
2022/12/19 11:14:33;;;;;;;12.15;5.55;;;;;;;;;;5046435;28;20045;-80
2022/12/19 11:17:25;;;;;;;8.45;4.93;;;;;;;;;;5058872;28;20052;-79
2022/12/19 11:20:14;;;;;;;11.30;6.00;;;;;;;;;;5037209;28;20604;-81
2022/12/19 11:23:04;;;;;;;11.98;5.40;;;;;;;;;;5045517;28;20050;-80
2022/12/19 11:26:02;;;;;;;12.23;6.22;;;;;;;;;;5045220;28;20039;-79
2022/12/19 11:28:50;;;;;;;15.05;6.13;;;;;;;;;;5045784;28;20046;-80
2022/12/19 11:31:37;;;;;;;10.35;5.85;;;;;;;;;;5045812;28;20049;-80
2022/12/19 11:34:27;;;;;;;10.90;5.97;;;;;;;;;;5040767;28;20397;-79
2022/12/19 11:37:06;;;;;;;12.68;6.38;;;;;;;;;;5035698;28;20035;-79
2022/12/19 11:39:46;;;;;;;16.63;5.82;;;;;;;;;;5044453;28;20082;-81
2022/12/19 11:42:23;;;;;;;15.38;6.25;;;;;;;;;;5054461;28;20053;-80
2022/12/19 11:44:57;;;;;;;12.38;6.05;;;;;;;;;;5056622;28;20050;-79
2022/12/19 11:47:43;;;;;;;12.05;6.10;;;;;;;;;;5044579;28;20133;-81
2022/12/19 11:50:10;;;;;;;12.00;5.95;;;;;;;;;;5040811;28;20050;-79
2022/12/19 11:52:38;;;;;;;15.27;6.38;;;;;;;;;;5045037;28;20038;-79
2022/12/19 11:55:27;;;;;;;9.35;5.57;;;;;;;;;;5042851;28;20097;-79
2022/12/19 11:57:54;;;;;;;11.38;4.88;;;;;;;;;;5043695;28;20061;-79
2022/12/19 12:00:23;;;;;;;10.90;5.43;;;;;;;;;;5047600;28;20152;-80
2022/12/19 12:03:06;;;;;;;8.43;5.15;;;;;;;;;;5044002;28;21220;-80
2022/12/19 12:05:43;;;;;;;8.40;5.43;;;;;;;;;;5046080;28;20053;-79
2022/12/19 12:08:10;;;;;;;12.95;5.85;;;;;;;;;;5058244;28;20757;-79
2022/12/19 12:11:05;;;;;;;7.72;5.15;;;;;;;;;;5035586;28;20060;-79
2022/12/19 12:14:14;;;;;;;10.00;5.05;;;;;;;;;;5043937;28;20057;-79
2022/12/19 12:17:05;;;;;;;9.80;4.78;;;;;;;;;;5039882;28;20084;-79
2022/12/19 12:20:11;;;;;;;8.77;5.07;;;;;;;;;;5045563;28;20053;-79
2022/12/19 12:22:58;;;;;;;10.07;5.20;;;;;;;;;;5039542;28;20042;-80
2022/12/19 12:26:04;;;;;;;8.82;4.72;;;;;;;;;;5044073;28;20045;-80
2022/12/19 12:28:52;;;;;;;9.40;5.43;;;;;;;;;;5041738;28;21351;-80
2022/12/19 12:32:00;;;;;;;9.20;4.93;;;;;;;;;;5040553;28;20050;-80
2022/12/19 12:34:57;;;;;;;10.63;5.00;;;;;;;;;;5044271;28;20057;-80
2022/12/19 12:38:17;;;;;;;9.77;4.97;;;;;;;;;;5044133;28;20381;-80
2022/12/19 12:40:59;;;;;;;9.68;4.80;;;;;;;;;;5017113;28;20046;-79
2022/12/19 12:43:35;;;;;;;9.27;4.63;;;;;;;;;;5037560;28;20038;-79
2022/12/19 12:46:04;;;;;;;7.40;4.20;;;;;;;;;;5042807;28;20141;-79
2022/12/19 12:48:38;;;;;;;8.30;4.88;;;;;;;;;;5042002;28;20125;-79
2022/12/19 12:51:06;;;;;;;10.52;4.68;;;;;;;;;;5039667;28;20075;-79
2022/12/19 12:53:36;;;;;;;7.00;4.38;;;;;;;;;;5041091;28;20112;-80
2022/12/19 12:56:07;;;;;;;7.40;4.35;;;;;;;;;;5042099;28;20053;-80
2022/12/19 12:58:54;;;;;;;10.10;4.50;;;;;;;;;;5040990;28;20049;-79
2022/12/19 13:01:40;;;;;;;8.82;4.53;;;;;;;;;;5039000;28;20136;-80
2022/12/19 13:04:12;;;;;;;7.45;4.50;;;;;;;;;;5055523;28;20053;-79
2022/12/19 13:06:41;;;;;;;7.28;4.15;;;;;;;;;;5042636;28;20081;-79
2022/12/19 13:09:13;;;;;;;8.18;4.28;;;;;;;;;;5046808;28;20042;-79
2022/12/19 13:14:33;;;;;;;7.90;4.18;;;;;;;;;;5041257;28;20602;-79
2022/12/19 13:17:02;;;;;;;9.90;4.28;;;;;;;;;;5043244;28;20054;-79
2022/12/19 13:19:54;;;;;;;8.18;4.57;;;;;;;;;;5040909;28;20069;-79
2022/12/19 13:22:22;;;;;;;10.70;4.47;;;;;;;;;;5057359;28;20162;-79
2022/12/19 13:24:53;;;;;;;8.80;4.18;;;;;;;;;;5039594;28;20074;-79
2022/12/19 13:27:22;;;;;;;13.48;4.70;;;;;;;;;;5036284;28;20467;-79
2022/12/19 13:30:13;;;;;;;7.80;4.32;;;;;;;;;;5037499;28;20050;-80
2022/12/19 13:32:41;;;;;;;12.32;4.32;;;;;;;;;;5030099;28;20049;-80
2022/12/19 13:35:26;;;;;;;7.65;4.57;;;;;;;;;;5041995;28;20037;-79
2022/12/19 13:38:24;;;;;;;8.15;4.57;;;;;;;;;;5037105;28;20057;-79
2022/12/19 13:44:21;;;;;;;10.73;4.13;;;;;;;;;;5037527;28;20103;-80
2022/12/19 13:46:50;;;;;;;8.88;4.50;;;;;;;;;;5040558;28;20038;-79
2022/12/19 13:49:22;;;;;;;11.20;4.32;;;;;;;;;;5052860;28;20104;-79
2022/12/19 13:51:53;;;;;;;;;;;;;;;;;;5038434;28;20045;-79
2022/12/19 13:54:31;;;;;;;7.47;3.88;;;;;;;;;;5043899;28;44762;-79
2022/12/19 13:56:59;;;;;;;5.93;4.07;;;;;;;;;;5039520;28;20038;-79
2022/12/19 13:59:37;;;;;;;6.97;4.18;;;;;;;;;;5040632;28;20085;-79
2022/12/19 14:02:16;;;;;;;7.82;4.78;;;;;;;;;;5037667;28;20046;-79
2022/12/19 14:04:48;;;;;;;8.85;4.28;;;;;;;;;;5037172;28;20053;-79
2022/12/19 14:07:27;;;;;;;7.55;4.13;;;;;;;;;;5040183;28;20049;-79
2022/12/19 14:10:04;;;;;;;6.93;3.85;;;;;;;;;;5053608;28;20857;-79
2022/12/19 14:16:24;;;;;;;5.25;3.70;;;;;;;;;;5038925;28;20050;-79
2022/12/19 14:19:24;;;;;;;7.80;4.07;;;;;;;;;;5036323;28;20054;-79
2022/12/19 14:21:56;;;;;;;8.18;4.00;;;;;;;;;;5038061;28;20046;-78
2022/12/19 14:25:00;;;;;;;8.52;3.67;;;;;;;;;;5034735;28;20050;-79
2022/12/19 14:27:54;;;;;;;7.03;3.45;;;;;;;;;;5037428;28;20054;-79
2022/12/19 14:30:43;;;;;;;6.90;3.90;;;;;;;;;;5034892;28;20042;-78
2022/12/19 14:33:16;;;;;;;6.05;3.45;;;;;;;;;;5037973;28;20041;-79
2022/12/19 14:36:04;;;;;;;9.30;3.85;;;;;;;;;;5039003;28;20112;-79
2022/12/19 14:38:47;;;;;;;7.10;4.00;;;;;;;;;;5035623;28;20088;-80
2022/12/19 14:44:44;;;;;;;5.57;3.47;;;;;;;;;;5037212;28;20030;-79
2022/12/19 14:47:34;;;;;;;12.40;3.78;;;;;;;;;;5034831;28;20112;-79
2022/12/19 14:50:28;;;;;;;9.48;4.13;;;;;;;;;;5033379;28;20054;-78
2022/12/19 14:53:19;;;;;;;6.00;3.77;;;;;;;;;;5031348;28;20061;-79
2022/12/19 14:56:10;;;;;;;6.60;3.70;;;;;;;;;;5031563;28;20312;-78
2022/12/19 14:58:58;;;;;;;7.13;3.65;;;;;;;;;;5038181;28;20061;-79
2022/12/19 15:01:27;;;;;;;10.13;4.07;;;;;;;;;;5037055;28;20054;-78
2022/12/19 15:03:57;;;;;;;5.93;3.70;;;;;;;;;;5038612;28;20084;-79
2022/12/19 15:06:45;;;;;;;5.60;3.55;;;;;;;;;;5037623;28;20057;-78
2022/12/19 15:09:38;;;;;;;6.55;3.40;;;;;;;;;;5048056;28;20062;-78
2022/12/19 15:15:47;;;;;;;7.53;3.63;;;;;;;;;;5041198;28;20057;-79
2022/12/19 15:18:19;;;;;;;9.23;3.97;;;;;;;;;;5034634;28;20050;-79
2022/12/19 15:20:48;;;;;;;5.93;3.53;;;;;;;;;;5036464;28;20057;-78
2022/12/19 15:23:15;;;;;;;7.47;3.78;;;;;;;;;;5039200;28;20277;-79
2022/12/19 15:25:49;;;;;;;8.05;3.67;;;;;;;;;;5037632;28;20064;-79
2022/12/19 15:28:36;;;;;;;6.70;3.05;;;;;;;;;;5039506;28;20052;-79